Time;durP1;ratioP1;P1;durP2;ratioP2;P2;SDS_P1;SDS_P2;PMS_P1;PMS_P2;Temp;Humidity;BMP_temperature;BMP_pressure;BME280_temperature;BME280_humidity;BME280_pressure;Samples;Min_cycle;Max_cycle;Signal;HPM_P1;HPM_P2
2023/07/17 00:00:11;;;;;;;18.30;9.55;;;;;;;;;;5071343;28;20028;-52
2023/07/17 00:02:37;;;;;;;17.85;9.80;;;;;;;;;;5071309;28;20027;-52
2023/07/17 00:05:04;;;;;;;16.75;9.23;;;;;;;;;;5070455;28;20170;-53
2023/07/17 00:07:30;;;;;;;18.45;10.10;;;;;;;;;;5070865;28;20519;-55
2023/07/17 00:09:57;;;;;;;18.20;9.82;;;;;;;;;;5071605;28;20049;-53
2023/07/17 00:12:23;;;;;;;20.58;9.70;;;;;;;;;;5071785;28;20020;-54
2023/07/17 00:14:49;;;;;;;18.98;10.00;;;;;;;;;;5054280;28;20094;-55
2023/07/17 00:17:15;;;;;;;18.42;9.43;;;;;;;;;;5071615;28;20020;-57
2023/07/17 00:19:42;;;;;;;18.95;9.95;;;;;;;;;;5071692;28;20107;-58
2023/07/17 00:22:08;;;;;;;18.85;9.73;;;;;;;;;;5071702;28;20128;-58
2023/07/17 00:24:34;;;;;;;21.05;9.60;;;;;;;;;;5052818;28;20117;-53
2023/07/17 00:27:01;;;;;;;23.33;10.43;;;;;;;;;;5071624;28;20036;-56
2023/07/17 00:29:31;;;;;;;17.40;10.02;;;;;;;;;;5071617;28;20381;-56
2023/07/17 00:31:57;;;;;;;20.50;10.00;;;;;;;;;;5071817;28;20438;-55
2023/07/17 00:34:23;;;;;;;18.67;10.35;;;;;;;;;;5070633;28;20119;-57
2023/07/17 00:36:49;;;;;;;17.98;9.63;;;;;;;;;;5053859;28;20058;-58
2023/07/17 00:39:15;;;;;;;20.42;9.73;;;;;;;;;;5071283;28;20059;-57
2023/07/17 00:41:41;;;;;;;21.63;10.00;;;;;;;;;;5071577;28;20499;-59
2023/07/17 00:44:07;;;;;;;16.65;9.45;;;;;;;;;;5070830;28;20021;-58
2023/07/17 00:46:34;;;;;;;19.73;9.15;;;;;;;;;;5053578;28;20097;-57
2023/07/17 00:49:04;;;;;;;17.85;9.80;;;;;;;;;;5071589;28;20021;-57
2023/07/17 00:51:32;;;;;;;18.85;9.65;;;;;;;;;;5071603;28;20104;-57
2023/07/17 00:53:58;;;;;;;17.73;9.37;;;;;;;;;;5070985;28;20361;-58
2023/07/17 00:56:25;;;;;;;18.15;8.98;;;;;;;;;;5071170;28;20086;-57
2023/07/17 00:58:52;;;;;;;18.70;8.73;;;;;;;;;;5071358;28;20090;-56
2023/07/17 01:01:18;;;;;;;18.02;9.32;;;;;;;;;;5071390;28;20025;-55
2023/07/17 01:03:44;;;;;;;17.45;9.40;;;;;;;;;;5071534;28;20029;-58
2023/07/17 01:06:10;;;;;;;17.10;8.88;;;;;;;;;;5070638;28;20386;-58
2023/07/17 01:08:36;;;;;;;19.25;9.10;;;;;;;;;;5071176;28;20039;-58
2023/07/17 01:11:02;;;;;;;17.50;9.20;;;;;;;;;;5071251;28;20013;-58
2023/07/17 01:13:28;;;;;;;17.52;9.13;;;;;;;;;;5063822;28;20025;-56
2023/07/17 01:15:54;;;;;;;17.02;8.60;;;;;;;;;;5064889;28;20020;-59
2023/07/17 01:18:20;;;;;;;19.73;9.07;;;;;;;;;;5070734;28;20032;-58
2023/07/17 01:20:46;;;;;;;17.20;8.27;;;;;;;;;;5074228;28;20679;-58
2023/07/17 01:23:12;;;;;;;17.05;7.97;;;;;;;;;;5074452;28;20033;-56
2023/07/17 01:25:38;;;;;;;16.92;8.35;;;;;;;;;;5073772;28;20094;-55
2023/07/17 01:28:04;;;;;;;17.60;8.95;;;;;;;;;;5074291;28;20512;-57
2023/07/17 01:30:30;;;;;;;16.98;8.25;;;;;;;;;;5074220;28;20023;-55
2023/07/17 01:32:56;;;;;;;17.40;8.43;;;;;;;;;;5074195;28;20021;-56
2023/07/17 01:35:23;;;;;;;15.50;7.80;;;;;;;;;;5073590;28;20016;-57
2023/07/17 01:37:49;;;;;;;18.42;8.75;;;;;;;;;;5074124;28;20082;-56
2023/07/17 01:40:16;;;;;;;18.88;9.13;;;;;;;;;;5074242;28;20032;-59
2023/07/17 01:42:42;;;;;;;19.17;8.25;;;;;;;;;;5073991;28;20028;-57
2023/07/17 01:45:08;;;;;;;16.65;7.82;;;;;;;;;;5073166;28;20123;-56
2023/07/17 01:47:34;;;;;;;16.40;9.20;;;;;;;;;;5074028;28;20424;-58
2023/07/17 01:50:02;;;;;;;17.73;9.20;;;;;;;;;;5074066;28;20020;-59
2023/07/17 01:52:28;;;;;;;17.23;9.65;;;;;;;;;;5073884;28;20017;-57
2023/07/17 01:54:54;;;;;;;18.80;9.32;;;;;;;;;;5055206;28;20059;-56
2023/07/17 01:57:20;;;;;;;18.55;9.80;;;;;;;;;;5074149;28;20025;-55
2023/07/17 01:59:45;;;;;;;18.05;11.18;;;;;;;;;;5056317;28;20032;-55
2023/07/17 02:02:12;;;;;;;17.73;12.30;;;;;;;;;;5055985;28;20469;-57
2023/07/17 02:04:37;;;;;;;22.00;18.75;;;;;;;;;;5073243;28;20032;-56
2023/07/17 02:07:04;;;;;;;21.55;18.83;;;;;;;;;;5073359;28;20031;-56
2023/07/17 02:09:30;;;;;;;21.95;18.92;;;;;;;;;;5055736;28;20025;-56
2023/07/17 02:11:56;;;;;;;20.05;17.65;;;;;;;;;;5073702;28;20369;-57
2023/07/17 02:14:21;;;;;;;21.58;17.92;;;;;;;;;;5072865;28;20025;-56
2023/07/17 02:16:47;;;;;;;19.38;15.48;;;;;;;;;;5073403;28;20033;-56
2023/07/17 02:19:15;;;;;;;22.85;15.90;;;;;;;;;;5073384;28;20025;-56
2023/07/17 02:21:41;;;;;;;19.65;15.38;;;;;;;;;;5073499;28;20497;-56
2023/07/17 02:24:07;;;;;;;20.65;15.73;;;;;;;;;;5072951;28;20040;-58
2023/07/17 02:26:33;;;;;;;19.73;16.88;;;;;;;;;;5073170;28;20024;-58
2023/07/17 02:28:59;;;;;;;20.55;15.98;;;;;;;;;;5074101;28;20056;-56
2023/07/17 02:31:25;;;;;;;22.27;15.68;;;;;;;;;;5059980;28;20051;-54
2023/07/17 02:33:51;;;;;;;21.55;16.70;;;;;;;;;;5076743;28;20079;-58
2023/07/17 02:36:17;;;;;;;18.77;15.27;;;;;;;;;;5076115;28;20029;-56
2023/07/17 02:38:43;;;;;;;23.10;16.20;;;;;;;;;;5075507;28;20139;-54
2023/07/17 02:41:09;;;;;;;21.13;16.88;;;;;;;;;;5074071;28;20481;-58
2023/07/17 02:43:35;;;;;;;22.98;18.00;;;;;;;;;;5073316;28;20016;-58
2023/07/17 02:46:02;;;;;;;21.50;17.83;;;;;;;;;;5072433;28;20032;-54
2023/07/17 02:48:28;;;;;;;20.75;16.90;;;;;;;;;;5073046;28;20021;-55
2023/07/17 02:50:54;;;;;;;22.17;16.15;;;;;;;;;;5073043;28;20020;-57
2023/07/17 02:53:20;;;;;;;20.70;15.60;;;;;;;;;;5072854;28;20024;-57
2023/07/17 02:55:46;;;;;;;20.15;15.20;;;;;;;;;;5071784;28;20495;-57
2023/07/17 02:58:19;;;;;;;20.00;15.18;;;;;;;;;;5072651;28;20097;-58
2023/07/17 03:00:45;;;;;;;21.30;14.98;;;;;;;;;;5072574;28;20029;-56
2023/07/17 03:03:11;;;;;;;22.60;15.30;;;;;;;;;;5072435;28;20443;-58
2023/07/17 03:05:37;;;;;;;21.42;15.65;;;;;;;;;;5071704;28;20178;-56
2023/07/17 03:08:03;;;;;;;20.33;15.18;;;;;;;;;;5072287;28;20036;-57
2023/07/17 03:10:29;;;;;;;25.55;16.23;;;;;;;;;;5072279;28;20032;-56
2023/07/17 03:12:55;;;;;;;19.90;14.88;;;;;;;;;;5072115;28;20025;-57
2023/07/17 03:15:21;;;;;;;22.20;15.35;;;;;;;;;;5070242;28;20392;-57
2023/07/17 03:17:47;;;;;;;20.77;14.05;;;;;;;;;;5072201;28;20052;-53
2023/07/17 03:20:14;;;;;;;19.20;13.73;;;;;;;;;;5072183;28;20031;-57
2023/07/17 03:22:40;;;;;;;21.30;13.95;;;;;;;;;;5071857;28;20028;-55
2023/07/17 03:25:07;;;;;;;18.70;13.40;;;;;;;;;;5071097;28;20553;-56
2023/07/17 03:27:33;;;;;;;20.88;13.07;;;;;;;;;;5071637;28;20025;-58
2023/07/17 03:29:59;;;;;;;21.15;13.90;;;;;;;;;;5072153;28;20399;-54
2023/07/17 03:32:25;;;;;;;21.20;13.13;;;;;;;;;;5072117;28;20107;-53
2023/07/17 03:34:51;;;;;;;20.20;13.20;;;;;;;;;;5071466;28;20473;-57
2023/07/17 03:37:17;;;;;;;19.67;12.82;;;;;;;;;;5072003;28;20032;-58
2023/07/17 03:39:43;;;;;;;18.63;13.35;;;;;;;;;;5070545;28;20499;-57
2023/07/17 03:42:13;;;;;;;21.88;12.70;;;;;;;;;;5070281;28;20024;-53
2023/07/17 03:44:40;;;;;;;19.50;12.93;;;;;;;;;;5071367;28;20104;-55
2023/07/17 03:47:06;;;;;;;19.90;12.93;;;;;;;;;;5072059;28;20111;-55
2023/07/17 03:49:32;;;;;;;21.08;13.40;;;;;;;;;;5071975;28;20021;-58
2023/07/17 03:51:58;;;;;;;20.83;13.05;;;;;;;;;;5071854;28;20023;-55
2023/07/17 03:54:25;;;;;;;24.30;13.60;;;;;;;;;;5070988;28;20047;-53
2023/07/17 03:56:51;;;;;;;19.67;12.48;;;;;;;;;;5071380;28;20036;-57
2023/07/17 03:59:17;;;;;;;20.13;13.75;;;;;;;;;;5071202;28;20388;-56
2023/07/17 04:01:43;;;;;;;19.30;12.90;;;;;;;;;;5071698;28;20032;-57
2023/07/17 04:04:09;;;;;;;20.88;13.20;;;;;;;;;;5067524;28;20024;-57
2023/07/17 04:06:35;;;;;;;20.67;13.50;;;;;;;;;;5071178;28;20386;-57
2023/07/17 04:09:01;;;;;;;18.77;13.00;;;;;;;;;;5071344;28;20032;-55
2023/07/17 04:11:27;;;;;;;20.80;13.43;;;;;;;;;;5071566;28;20029;-55
2023/07/17 04:13:53;;;;;;;22.02;12.98;;;;;;;;;;5071147;28;20024;-57
2023/07/17 04:16:20;;;;;;;18.75;12.90;;;;;;;;;;5071145;28;20405;-54
2023/07/17 04:18:46;;;;;;;22.25;13.13;;;;;;;;;;5071472;28;20025;-55
2023/07/17 04:21:12;;;;;;;19.13;13.32;;;;;;;;;;5071373;28;20484;-58
2023/07/17 04:23:38;;;;;;;44.60;15.10;;;;;;;;;;5071428;28;20024;-57
2023/07/17 04:26:05;;;;;;;21.27;12.45;;;;;;;;;;5070674;28;20443;-56
2023/07/17 04:28:31;;;;;;;20.90;12.38;;;;;;;;;;5053375;28;20021;-54
2023/07/17 04:30:57;;;;;;;19.27;12.27;;;;;;;;;;5071394;28;20036;-54
2023/07/17 04:33:23;;;;;;;20.35;11.43;;;;;;;;;;5071307;28;20096;-57
2023/07/17 04:35:49;;;;;;;19.33;11.95;;;;;;;;;;5070612;28;20052;-59
2023/07/17 04:38:15;;;;;;;21.48;11.68;;;;;;;;;;5071287;28;20020;-57
2023/07/17 04:40:41;;;;;;;20.42;10.30;;;;;;;;;;5070836;28;20024;-57
2023/07/17 04:43:07;;;;;;;23.85;11.23;;;;;;;;;;5071181;28;20077;-58
2023/07/17 04:45:33;;;;;;;18.70;10.35;;;;;;;;;;5070308;28;20422;-59
2023/07/17 04:47:59;;;;;;;21.05;10.77;;;;;;;;;;5071162;28;20028;-57
2023/07/17 04:50:26;;;;;;;22.00;11.98;;;;;;;;;;5071111;28;20033;-59
2023/07/17 04:52:52;;;;;;;20.38;10.52;;;;;;;;;;5071134;28;20021;-57
2023/07/17 04:55:18;;;;;;;19.73;10.30;;;;;;;;;;5055248;28;20027;-59
2023/07/17 04:57:44;;;;;;;20.20;10.18;;;;;;;;;;5056811;28;20036;-56
2023/07/17 05:00:11;;;;;;;21.00;10.00;;;;;;;;;;5074529;28;20017;-57
2023/07/17 05:02:37;;;;;;;19.20;9.90;;;;;;;;;;5074682;28;20112;-57
2023/07/17 05:05:03;;;;;;;20.65;10.10;;;;;;;;;;5073846;28;20032;-54
2023/07/17 05:07:29;;;;;;;19.13;10.43;;;;;;;;;;5074162;28;20029;-56
2023/07/17 05:09:55;;;;;;;22.13;10.77;;;;;;;;;;5074344;28;20032;-56
2023/07/17 05:12:21;;;;;;;20.83;10.55;;;;;;;;;;5074597;28;20107;-56
2023/07/17 05:14:47;;;;;;;21.45;9.95;;;;;;;;;;5073776;28;20079;-56
2023/07/17 05:17:15;;;;;;;18.83;10.27;;;;;;;;;;5074429;28;21751;-57
2023/07/17 05:19:41;;;;;;;21.02;10.65;;;;;;;;;;5074281;28;20024;-57
2023/07/17 05:22:07;;;;;;;19.60;10.45;;;;;;;;;;5074117;28;20038;-55
2023/07/17 05:24:33;;;;;;;20.35;11.13;;;;;;;;;;5073502;28;20032;-55
2023/07/17 05:26:59;;;;;;;17.95;9.75;;;;;;;;;;5055948;28;20029;-54
2023/07/17 05:29:25;;;;;;;17.33;9.52;;;;;;;;;;5074102;28;20052;-56
2023/07/17 05:31:51;;;;;;;21.70;10.40;;;;;;;;;;5074014;28;20542;-51
2023/07/17 05:34:17;;;;;;;18.85;10.23;;;;;;;;;;5073254;28;20024;-56
2023/07/17 05:36:43;;;;;;;19.63;9.32;;;;;;;;;;5056148;28;20085;-57
2023/07/17 05:39:09;;;;;;;18.60;9.27;;;;;;;;;;5055960;28;20020;-58
2023/07/17 05:41:35;;;;;;;17.90;8.90;;;;;;;;;;5055850;28;20051;-55
2023/07/17 05:44:01;;;;;;;19.63;10.05;;;;;;;;;;5073412;28;20099;-57
2023/07/17 05:46:27;;;;;;;19.13;9.90;;;;;;;;;;5073375;28;20664;-52
2023/07/17 05:48:53;;;;;;;16.75;8.88;;;;;;;;;;5073795;28;20028;-56
2023/07/17 05:51:19;;;;;;;20.33;9.02;;;;;;;;;;5073530;28;20016;-57
2023/07/17 05:53:45;;;;;;;16.95;9.35;;;;;;;;;;5055643;28;20066;-56
2023/07/17 05:56:14;;;;;;;18.15;9.30;;;;;;;;;;5073058;28;20020;-55
2023/07/17 05:58:41;;;;;;;16.90;8.10;;;;;;;;;;5073386;28;20021;-54
2023/07/17 06:01:07;;;;;;;22.23;8.70;;;;;;;;;;5073680;28;20060;-55
2023/07/17 06:03:33;;;;;;;18.38;8.45;;;;;;;;;;5073624;28;20039;-54
2023/07/17 06:05:58;;;;;;;19.27;8.20;;;;;;;;;;5072634;28;20024;-57
2023/07/17 06:08:25;;;;;;;19.15;8.63;;;;;;;;;;5055226;28;20033;-53
2023/07/17 06:10:51;;;;;;;19.38;8.57;;;;;;;;;;5068256;28;20025;-56
2023/07/17 06:13:19;;;;;;;18.88;8.52;;;;;;;;;;5064562;28;20039;-54
2023/07/17 06:15:45;;;;;;;18.55;8.07;;;;;;;;;;5059887;28;20024;-54
2023/07/17 06:18:11;;;;;;;18.23;8.38;;;;;;;;;;5053108;28;20397;-52
2023/07/17 06:20:37;;;;;;;19.30;7.85;;;;;;;;;;5072061;28;20028;-57
2023/07/17 06:23:03;;;;;;;17.95;7.82;;;;;;;;;;5072966;28;20441;-55
2023/07/17 06:25:29;;;;;;;18.80;9.07;;;;;;;;;;5072277;28;20039;-58
2023/07/17 06:27:55;;;;;;;18.13;9.27;;;;;;;;;;5063919;28;20037;-56
2023/07/17 06:30:21;;;;;;;19.70;8.00;;;;;;;;;;5053316;28;20028;-58
2023/07/17 06:32:47;;;;;;;16.83;8.35;;;;;;;;;;5053050;28;20029;-58
2023/07/17 06:35:13;;;;;;;17.00;7.68;;;;;;;;;;5052109;28;20112;-55
2023/07/17 06:37:39;;;;;;;19.23;9.00;;;;;;;;;;5034751;28;20025;-55
2023/07/17 06:40:05;;;;;;;16.10;7.70;;;;;;;;;;5052816;28;20036;-57
2023/07/17 06:42:33;;;;;;;19.85;8.10;;;;;;;;;;5052635;28;20029;-54
2023/07/17 06:44:58;;;;;;;18.38;7.88;;;;;;;;;;5060871;28;20020;-55
2023/07/17 06:47:24;;;;;;;17.58;7.80;;;;;;;;;;5072347;28;20085;-58
2023/07/17 06:49:50;;;;;;;18.67;8.50;;;;;;;;;;5072298;28;20025;-57
2023/07/17 06:52:16;;;;;;;17.08;8.52;;;;;;;;;;5072587;28;20486;-57
2023/07/17 06:54:42;;;;;;;17.40;8.73;;;;;;;;;;5072272;28;20028;-58
2023/07/17 06:57:08;;;;;;;19.00;8.38;;;;;;;;;;5072749;28;20035;-57
2023/07/17 06:59:34;;;;;;;22.35;9.55;;;;;;;;;;5072606;28;20537;-57
2023/07/17 07:02:00;;;;;;;20.45;8.32;;;;;;;;;;5072513;28;20124;-58
2023/07/17 07:04:26;;;;;;;20.25;9.25;;;;;;;;;;5071975;28;20024;-58
2023/07/17 07:06:52;;;;;;;17.25;8.38;;;;;;;;;;5072144;28;20033;-53
2023/07/17 07:09:18;;;;;;;18.48;9.02;;;;;;;;;;5072256;28;20056;-55
2023/07/17 07:11:44;;;;;;;18.73;9.02;;;;;;;;;;5071913;28;20134;-56
2023/07/17 07:14:10;;;;;;;18.70;8.27;;;;;;;;;;5071111;28;20428;-54
2023/07/17 07:16:36;;;;;;;17.42;8.93;;;;;;;;;;5064822;28;20037;-56
2023/07/17 07:19:02;;;;;;;19.40;8.85;;;;;;;;;;5071697;28;20503;-55
2023/07/17 07:21:28;;;;;;;18.52;9.05;;;;;;;;;;5071732;28;20021;-56
2023/07/17 07:23:54;;;;;;;19.23;10.23;;;;;;;;;;5053392;28;20036;-56
2023/07/17 07:26:20;;;;;;;18.92;9.15;;;;;;;;;;5071471;28;20024;-54
2023/07/17 07:28:46;;;;;;;22.83;9.98;;;;;;;;;;5071372;28;20021;-54
2023/07/17 07:31:12;;;;;;;18.85;9.50;;;;;;;;;;5053869;28;20016;-55
2023/07/17 07:33:38;;;;;;;20.88;10.35;;;;;;;;;;5071652;28;20035;-57
2023/07/17 07:36:05;;;;;;;23.25;11.02;;;;;;;;;;5070882;28;20039;-57
2023/07/17 07:38:30;;;;;;;18.10;9.25;;;;;;;;;;5071462;28;20029;-57
2023/07/17 07:40:56;;;;;;;17.95;9.90;;;;;;;;;;5071607;28;20035;-56
2023/07/17 07:43:22;;;;;;;20.95;10.38;;;;;;;;;;5053470;28;20078;-55
2023/07/17 07:45:48;;;;;;;20.83;10.88;;;;;;;;;;5070769;28;20059;-53
2023/07/17 07:48:14;;;;;;;20.52;10.32;;;;;;;;;;5071137;28;20121;-52
2023/07/17 07:50:40;;;;;;;20.17;10.85;;;;;;;;;;5071377;28;20082;-54
2023/07/17 07:53:06;;;;;;;20.27;10.75;;;;;;;;;;5071762;28;20035;-50
2023/07/17 07:55:32;;;;;;;20.85;11.73;;;;;;;;;;5070870;28;20017;-50
2023/07/17 07:57:59;;;;;;;20.65;11.25;;;;;;;;;;5053602;28;20477;-48
2023/07/17 08:00:25;;;;;;;18.42;10.63;;;;;;;;;;5071564;28;20032;-53
2023/07/17 08:02:53;;;;;;;20.55;11.20;;;;;;;;;;5070395;28;20020;-49
2023/07/17 08:05:19;;;;;;;18.23;11.02;;;;;;;;;;5052530;28;20033;-49
2023/07/17 08:07:45;;;;;;;23.70;10.80;;;;;;;;;;5070958;28;20511;-48
2023/07/17 08:10:11;;;;;;;18.55;11.05;;;;;;;;;;5071659;28;20025;-47
2023/07/17 08:12:37;;;;;;;25.20;11.63;;;;;;;;;;5071410;28;20389;-47
2023/07/17 08:15:04;;;;;;;18.45;11.52;;;;;;;;;;5052750;28;20079;-52
2023/07/17 08:17:30;;;;;;;23.25;11.98;;;;;;;;;;5053046;28;20029;-49
2023/07/17 08:19:56;;;;;;;19.02;11.82;;;;;;;;;;5071110;28;20114;-52
2023/07/17 08:22:22;;;;;;;20.20;11.75;;;;;;;;;;5053283;28;20033;-51
2023/07/17 08:24:48;;;;;;;19.40;11.45;;;;;;;;;;5069776;28;20030;-53
2023/07/17 08:27:14;;;;;;;20.13;11.13;;;;;;;;;;5067592;28;20051;-52
2023/07/17 08:29:40;;;;;;;21.42;12.80;;;;;;;;;;5065235;28;20021;-54
2023/07/17 08:32:06;;;;;;;19.35;11.48;;;;;;;;;;5062744;28;20108;-51
2023/07/17 08:34:32;;;;;;;21.95;11.55;;;;;;;;;;5054275;28;20484;-55
2023/07/17 08:36:58;;;;;;;18.60;11.85;;;;;;;;;;5055197;28;20029;-60
2023/07/17 08:39:24;;;;;;;17.25;10.05;;;;;;;;;;5038902;28;20180;-54
2023/07/17 08:41:50;;;;;;;18.42;10.55;;;;;;;;;;5054665;28;20108;-51
2023/07/17 08:44:17;;;;;;;19.90;11.25;;;;;;;;;;5054031;28;20025;-54
2023/07/17 08:46:43;;;;;;;18.23;10.70;;;;;;;;;;5054575;28;20025;-51
2023/07/17 08:49:10;;;;;;;17.20;9.77;;;;;;;;;;5054446;28;20029;-55
2023/07/17 08:51:36;;;;;;;20.10;10.18;;;;;;;;;;5054527;28;20025;-56
2023/07/17 08:54:06;;;;;;;20.35;11.00;;;;;;;;;;5053735;28;20048;-53
2023/07/17 08:56:32;;;;;;;19.13;10.43;;;;;;;;;;5054021;28;20025;-56
2023/07/17 08:58:59;;;;;;;19.13;10.40;;;;;;;;;;5054456;28;20453;-56
2023/07/17 09:01:26;;;;;;;17.70;10.77;;;;;;;;;;5054563;28;20079;-56
2023/07/17 09:03:52;;;;;;;18.90;10.25;;;;;;;;;;5054256;28;20497;-55
2023/07/17 09:06:23;;;;;;;20.63;10.23;;;;;;;;;;5053941;28;20473;-57
2023/07/17 09:08:49;;;;;;;17.23;10.70;;;;;;;;;;5054107;28;20029;-56
2023/07/17 09:11:16;;;;;;;19.10;11.15;;;;;;;;;;5054203;28;20029;-57
2023/07/17 09:13:47;;;;;;;17.85;10.05;;;;;;;;;;5068238;28;20020;-55
2023/07/17 09:16:18;;;;;;;17.40;10.23;;;;;;;;;;5073305;28;20578;-53
2023/07/17 09:18:44;;;;;;;19.88;11.55;;;;;;;;;;5074056;28;20396;-56
2023/07/17 09:21:17;;;;;;;18.15;10.35;;;;;;;;;;5073902;28;20020;-58
2023/07/17 09:23:44;;;;;;;18.55;10.45;;;;;;;;;;5073986;28;20032;-55
2023/07/17 09:26:10;;;;;;;16.58;10.05;;;;;;;;;;5055289;28;20024;-58
2023/07/17 09:28:39;;;;;;;18.77;10.38;;;;;;;;;;5073681;28;20028;-55
2023/07/17 09:31:06;;;;;;;16.77;10.43;;;;;;;;;;5068981;28;20032;-56
2023/07/17 09:33:36;;;;;;;17.58;11.25;;;;;;;;;;5073382;28;20392;-51
2023/07/17 09:36:02;;;;;;;18.83;11.02;;;;;;;;;;5073167;28;20389;-54
2023/07/17 09:38:28;;;;;;;18.77;10.75;;;;;;;;;;5073834;28;20025;-55
2023/07/17 09:40:54;;;;;;;23.42;11.75;;;;;;;;;;5073122;28;20024;-56
2023/07/17 09:43:31;;;;;;;16.98;10.82;;;;;;;;;;5073490;28;20162;-55
2023/07/17 09:46:01;;;;;;;17.45;10.98;;;;;;;;;;5072960;28;20508;-57
2023/07/17 09:48:27;;;;;;;17.38;10.88;;;;;;;;;;5073450;28;20036;-56
2023/07/17 09:50:56;;;;;;;18.83;10.25;;;;;;;;;;5073754;28;20396;-52
2023/07/17 09:53:22;;;;;;;16.30;10.23;;;;;;;;;;5073400;28;20060;-53
2023/07/17 09:55:50;;;;;;;17.17;11.05;;;;;;;;;;5072787;28;20029;-51
2023/07/17 09:58:18;;;;;;;17.38;10.77;;;;;;;;;;5073165;28;20032;-56
2023/07/17 10:00:44;;;;;;;20.25;11.38;;;;;;;;;;5073274;28;20037;-55
2023/07/17 10:03:10;;;;;;;18.30;11.05;;;;;;;;;;5073295;28;20634;-57
2023/07/17 10:05:37;;;;;;;17.42;10.57;;;;;;;;;;5072390;28;20112;-57
2023/07/17 10:08:07;;;;;;;19.38;11.48;;;;;;;;;;5072943;28;20082;-56
2023/07/17 10:10:34;;;;;;;18.13;11.38;;;;;;;;;;5073427;28;20036;-52
2023/07/17 10:13:00;;;;;;;18.35;11.38;;;;;;;;;;5070042;28;20031;-54
2023/07/17 10:15:27;;;;;;;17.77;10.93;;;;;;;;;;5069402;28;20029;-51
2023/07/17 10:17:57;;;;;;;16.98;10.75;;;;;;;;;;5055108;28;20035;-56
2023/07/17 10:20:23;;;;;;;18.98;10.82;;;;;;;;;;5072974;28;20033;-58
2023/07/17 10:22:50;;;;;;;16.92;11.18;;;;;;;;;;5072806;28;20028;-51
2023/07/17 10:25:19;;;;;;;18.95;10.95;;;;;;;;;;5072389;28;20024;-57
2023/07/17 10:28:03;;;;;;;16.38;10.23;;;;;;;;;;5072795;28;20783;-53
2023/07/17 10:30:37;;;;;;;17.67;10.90;;;;;;;;;;5072697;28;20477;-54
2023/07/17 10:33:06;;;;;;;17.20;11.10;;;;;;;;;;5072442;28;20496;-53
2023/07/17 10:35:43;;;;;;;16.60;10.85;;;;;;;;;;5071839;28;20020;-51
2023/07/17 10:38:10;;;;;;;18.83;11.85;;;;;;;;;;5072655;28;20027;-56
2023/07/17 10:40:36;;;;;;;18.35;11.30;;;;;;;;;;5072494;28;20511;-53
2023/07/17 10:43:20;;;;;;;17.67;11.80;;;;;;;;;;5070567;28;20036;-50
2023/07/17 10:45:48;;;;;;;16.00;11.18;;;;;;;;;;5068732;28;20146;-55
2023/07/17 10:48:14;;;;;;;16.80;11.80;;;;;;;;;;5071591;28;20396;-56
2023/07/17 10:50:48;;;;;;;18.10;11.50;;;;;;;;;;5071566;28;20025;-56
2023/07/17 10:53:14;;;;;;;18.58;11.45;;;;;;;;;;5071450;28;20385;-55
2023/07/17 10:55:40;;;;;;;20.30;12.00;;;;;;;;;;5071132;28;20074;-56
2023/07/17 10:58:06;;;;;;;16.60;11.60;;;;;;;;;;5072030;28;20445;-57
2023/07/17 11:00:33;;;;;;;18.33;11.70;;;;;;;;;;5072135;28;20052;-51
2023/07/17 11:03:00;;;;;;;17.77;12.45;;;;;;;;;;5072272;28;20028;-53
2023/07/17 11:05:26;;;;;;;18.92;12.15;;;;;;;;;;5071313;28;20055;-49
2023/07/17 11:07:55;;;;;;;18.95;11.93;;;;;;;;;;5072008;28;20086;-53
2023/07/17 11:10:21;;;;;;;16.95;11.63;;;;;;;;;;5072448;28;20025;-56
2023/07/17 11:12:47;;;;;;;17.05;11.55;;;;;;;;;;5072048;28;20104;-53
2023/07/17 11:15:14;;;;;;;17.17;11.57;;;;;;;;;;5071350;28;20048;-52
2023/07/17 11:17:40;;;;;;;16.77;11.88;;;;;;;;;;5072226;28;20025;-55
2023/07/17 11:20:07;;;;;;;20.13;12.38;;;;;;;;;;5072219;28;20021;-55
2023/07/17 11:22:33;;;;;;;17.67;12.38;;;;;;;;;;5072114;28;20338;-52
2023/07/17 11:24:59;;;;;;;17.02;11.82;;;;;;;;;;5071208;28;20028;-54
2023/07/17 11:27:25;;;;;;;17.08;12.23;;;;;;;;;;5071676;28;20523;-52
2023/07/17 11:29:51;;;;;;;16.00;11.00;;;;;;;;;;5071867;28;20147;-51
2023/07/17 11:32:20;;;;;;;19.65;11.57;;;;;;;;;;5071588;28;20094;-54
2023/07/17 11:34:52;;;;;;;17.85;11.50;;;;;;;;;;5067866;28;20024;-56
2023/07/17 11:37:31;;;;;;;17.27;12.00;;;;;;;;;;5068640;28;20104;-50
2023/07/17 11:39:57;;;;;;;;;;;;;;;;;;5071697;28;20114;-53
2023/07/17 11:42:23;;;;;;;17.25;11.95;;;;;;;;;;5071438;28;20373;-55
2023/07/17 11:45:00;;;;;;;19.90;12.52;;;;;;;;;;5070768;28;20021;-53
2023/07/17 11:47:26;;;;;;;16.65;12.00;;;;;;;;;;5071229;28;20028;-52
2023/07/17 11:49:53;;;;;;;17.33;11.60;;;;;;;;;;5071141;28;20123;-53
2023/07/17 11:52:20;;;;;;;18.73;11.27;;;;;;;;;;5071400;28;20016;-56
2023/07/17 11:54:46;;;;;;;17.90;12.05;;;;;;;;;;5070683;28;20103;-52
2023/07/17 11:57:12;;;;;;;22.13;11.77;;;;;;;;;;5071367;28;20090;-54
2023/07/17 11:59:38;;;;;;;19.05;11.65;;;;;;;;;;5071624;28;20393;-53
2023/07/17 12:02:05;;;;;;;18.42;11.50;;;;;;;;;;5070816;28;20024;-51
2023/07/17 12:04:41;;;;;;;18.48;11.57;;;;;;;;;;5070248;28;20036;-54
2023/07/17 12:07:17;;;;;;;17.85;11.63;;;;;;;;;;5071098;28;20116;-57
2023/07/17 12:09:43;;;;;;;19.65;12.38;;;;;;;;;;5071298;28;20507;-56
2023/07/17 12:12:09;;;;;;;18.67;12.18;;;;;;;;;;5071181;28;20024;-55
2023/07/17 12:14:35;;;;;;;16.90;12.40;;;;;;;;;;5071795;28;20021;-61
2023/07/17 12:17:01;;;;;;;17.65;11.55;;;;;;;;;;5071128;28;20028;-60
2023/07/17 12:19:27;;;;;;;17.90;11.63;;;;;;;;;;5053210;28;20029;-64
2023/07/17 12:21:53;;;;;;;17.80;12.02;;;;;;;;;;5071122;28;20021;-63
2023/07/17 12:24:20;;;;;;;18.17;10.73;;;;;;;;;;5070657;28;20536;-65
2023/07/17 12:26:46;;;;;;;18.42;11.60;;;;;;;;;;5066048;28;20091;-54
2023/07/17 12:29:12;;;;;;;19.10;11.32;;;;;;;;;;5058907;28;20017;-64
2023/07/17 12:31:37;;;;;;;18.15;12.05;;;;;;;;;;5052597;28;20122;-65
2023/07/17 12:34:03;;;;;;;16.83;11.13;;;;;;;;;;5050334;28;20535;-66
2023/07/17 12:36:30;;;;;;;17.90;11.20;;;;;;;;;;5050533;28;20021;-66
2023/07/17 12:39:11;;;;;;;17.10;11.32;;;;;;;;;;5050844;28;20463;-66
2023/07/17 12:41:37;;;;;;;16.05;11.25;;;;;;;;;;5050739;28;20019;-63
2023/07/17 12:44:04;;;;;;;20.45;12.18;;;;;;;;;;5050138;28;20096;-59
2023/07/17 12:46:30;;;;;;;18.00;11.77;;;;;;;;;;5050603;28;20048;-63
2023/07/17 12:48:56;;;;;;;19.27;12.35;;;;;;;;;;5050765;28;20481;-65
2023/07/17 12:51:22;;;;;;;18.10;11.82;;;;;;;;;;5033199;28;20056;-63
2023/07/17 12:53:48;;;;;;;17.23;11.38;;;;;;;;;;5050958;28;20517;-62
2023/07/17 12:56:14;;;;;;;16.20;11.02;;;;;;;;;;5050224;28;20049;-62
2023/07/17 12:58:39;;;;;;;16.25;11.98;;;;;;;;;;5050678;28;20064;-64
2023/07/17 13:01:05;;;;;;;16.33;11.32;;;;;;;;;;5033221;28;20036;-60
2023/07/17 13:03:31;;;;;;;18.10;11.02;;;;;;;;;;5050817;28;20057;-63
2023/07/17 13:05:57;;;;;;;16.42;11.40;;;;;;;;;;5050027;28;20029;-63
2023/07/17 13:08:23;;;;;;;16.50;11.35;;;;;;;;;;5050520;28;20033;-62
2023/07/17 13:10:49;;;;;;;17.67;11.35;;;;;;;;;;5050969;28;20654;-63
2023/07/17 13:13:15;;;;;;;17.35;11.20;;;;;;;;;;5060940;28;20021;-63
2023/07/17 13:15:41;;;;;;;17.35;11.35;;;;;;;;;;5053991;28;20166;-64
2023/07/17 13:18:07;;;;;;;15.63;11.60;;;;;;;;;;5072371;28;20518;-61
2023/07/17 13:20:33;;;;;;;18.40;11.90;;;;;;;;;;5072045;28;20038;-63
2023/07/17 13:22:59;;;;;;;20.38;12.63;;;;;;;;;;5074108;28;20029;-63
2023/07/17 13:25:25;;;;;;;16.02;12.27;;;;;;;;;;5073720;28;20094;-64
2023/07/17 13:27:51;;;;;;;19.73;12.07;;;;;;;;;;5066268;28;20032;-65
2023/07/17 13:30:18;;;;;;;16.63;12.07;;;;;;;;;;5074809;28;20025;-63
2023/07/17 13:32:44;;;;;;;16.23;11.98;;;;;;;;;;5056262;28;20051;-64
2023/07/17 13:35:10;;;;;;;18.00;12.38;;;;;;;;;;5073286;28;20023;-63
2023/07/17 13:37:36;;;;;;;18.42;11.80;;;;;;;;;;5074121;28;20051;-64
2023/07/17 13:40:02;;;;;;;17.27;11.95;;;;;;;;;;5074144;28;20484;-64
2023/07/17 13:42:28;;;;;;;16.17;12.40;;;;;;;;;;5073846;28;20078;-64
2023/07/17 13:44:59;;;;;;;17.30;12.10;;;;;;;;;;5055000;28;20028;-64
2023/07/17 13:47:25;;;;;;;16.55;12.38;;;;;;;;;;5073465;28;20035;-65
2023/07/17 13:49:51;;;;;;;16.08;11.93;;;;;;;;;;5073814;28;20021;-63
2023/07/17 13:52:17;;;;;;;16.70;12.88;;;;;;;;;;5055311;28;20031;-63
2023/07/17 13:54:43;;;;;;;17.98;13.25;;;;;;;;;;5072990;28;20021;-64
2023/07/17 13:57:09;;;;;;;16.70;12.70;;;;;;;;;;5060904;28;20053;-64
2023/07/17 13:59:35;;;;;;;19.55;13.00;;;;;;;;;;5062103;28;20025;-65
2023/07/17 14:02:01;;;;;;;17.13;12.98;;;;;;;;;;4695785;28;10000175;-64
2023/07/17 14:04:27;;;;;;;16.55;12.05;;;;;;;;;;5070324;28;20130;-64
2023/07/17 14:06:53;;;;;;;17.92;12.70;;;;;;;;;;5070207;28;20028;-64
2023/07/17 14:09:19;;;;;;;17.95;11.93;;;;;;;;;;5070099;28;20097;-67
2023/07/17 14:11:45;;;;;;;17.95;12.55;;;;;;;;;;5050266;28;20025;-63
2023/07/17 14:14:11;;;;;;;18.25;13.23;;;;;;;;;;5066847;28;20020;-58
2023/07/17 14:16:37;;;;;;;17.13;12.65;;;;;;;;;;5070199;28;20484;-63